sensor_id;sensor_type;location;lat;lon;timestamp;P1;durP1;ratioP1;P2;durP2;ratioP2
38182;SDS011;23991;52.430;10.586;2024-02-28T00:00:45;12.90;;;7.93;;
38182;SDS011;23991;52.430;10.586;2024-02-28T00:03:10;12.07;;;8.82;;
38182;SDS011;23991;52.430;10.586;2024-02-28T00:05:36;11.77;;;8.30;;
38182;SDS011;23991;52.430;10.586;2024-02-28T00:08:01;13.35;;;8.48;;
38182;SDS011;23991;52.430;10.586;2024-02-28T00:10:27;12.20;;;7.53;;
38182;SDS011;23991;52.430;10.586;2024-02-28T00:12:53;14.25;;;8.07;;
38182;SDS011;23991;52.430;10.586;2024-02-28T00:15:18;12.75;;;8.73;;
38182;SDS011;23991;52.430;10.586;2024-02-28T00:17:44;13.23;;;8.77;;
38182;SDS011;23991;52.430;10.586;2024-02-28T00:20:09;14.85;;;10.82;;
38182;SDS011;23991;52.430;10.586;2024-02-28T00:22:36;9.98;;;7.45;;
38182;SDS011;23991;52.430;10.586;2024-02-28T00:25:02;13.60;;;8.50;;
38182;SDS011;23991;52.430;10.586;2024-02-28T00:27:28;11.77;;;7.60;;
38182;SDS011;23991;52.430;10.586;2024-02-28T00:29:54;14.57;;;8.38;;
38182;SDS011;23991;52.430;10.586;2024-02-28T00:32:20;12.13;;;8.57;;
38182;SDS011;23991;52.430;10.586;2024-02-28T00:34:46;11.25;;;7.97;;
38182;SDS011;23991;52.430;10.586;2024-02-28T00:37:12;13.07;;;8.63;;
38182;SDS011;23991;52.430;10.586;2024-02-28T00:39:37;11.95;;;7.88;;
38182;SDS011;23991;52.430;10.586;2024-02-28T00:42:03;11.00;;;8.20;;
38182;SDS011;23991;52.430;10.586;2024-02-28T00:44:28;10.82;;;8.18;;
38182;SDS011;23991;52.430;10.586;2024-02-28T00:46:54;12.82;;;8.27;;
38182;SDS011;23991;52.430;10.586;2024-02-28T00:49:19;14.57;;;8.77;;
38182;SDS011;23991;52.430;10.586;2024-02-28T00:51:45;11.70;;;8.88;;
38182;SDS011;23991;52.430;10.586;2024-02-28T00:54:11;12.07;;;8.45;;
38182;SDS011;23991;52.430;10.586;2024-02-28T00:56:36;12.07;;;8.68;;
38182;SDS011;23991;52.430;10.586;2024-02-28T00:59:02;15.15;;;8.38;;
38182;SDS011;23991;52.430;10.586;2024-02-28T01:01:28;12.80;;;8.82;;
38182;SDS011;23991;52.430;10.586;2024-02-28T01:03:53;12.80;;;7.97;;
38182;SDS011;23991;52.430;10.586;2024-02-28T01:06:19;15.52;;;8.75;;
38182;SDS011;23991;52.430;10.586;2024-02-28T01:08:44;12.48;;;8.48;;
38182;SDS011;23991;52.430;10.586;2024-02-28T01:11:10;11.20;;;7.53;;
38182;SDS011;23991;52.430;10.586;2024-02-28T01:13:35;12.65;;;8.75;;
38182;SDS011;23991;52.430;10.586;2024-02-28T01:16:01;13.48;;;8.55;;
38182;SDS011;23991;52.430;10.586;2024-02-28T01:18:27;12.60;;;9.20;;
38182;SDS011;23991;52.430;10.586;2024-02-28T01:20:55;11.70;;;7.88;;
38182;SDS011;23991;52.430;10.586;2024-02-28T01:23:21;12.57;;;8.35;;
38182;SDS011;23991;52.430;10.586;2024-02-28T01:25:46;11.20;;;7.85;;
38182;SDS011;23991;52.430;10.586;2024-02-28T01:28:12;13.20;;;8.93;;
38182;SDS011;23991;52.430;10.586;2024-02-28T01:30:37;13.23;;;9.15;;
38182;SDS011;23991;52.430;10.586;2024-02-28T01:33:03;13.43;;;8.18;;
38182;SDS011;23991;52.430;10.586;2024-02-28T01:35:29;12.70;;;8.52;;
38182;SDS011;23991;52.430;10.586;2024-02-28T01:37:54;12.02;;;7.72;;
38182;SDS011;23991;52.430;10.586;2024-02-28T01:40:20;12.82;;;8.30;;
38182;SDS011;23991;52.430;10.586;2024-02-28T01:42:46;12.50;;;8.35;;
38182;SDS011;23991;52.430;10.586;2024-02-28T01:45:13;12.15;;;8.40;;
38182;SDS011;23991;52.430;10.586;2024-02-28T01:47:42;13.15;;;8.77;;
38182;SDS011;23991;52.430;10.586;2024-02-28T01:50:09;11.20;;;8.35;;
38182;SDS011;23991;52.430;10.586;2024-02-28T01:52:36;11.43;;;8.30;;
38182;SDS011;23991;52.430;10.586;2024-02-28T01:55:03;17.05;;;9.27;;
38182;SDS011;23991;52.430;10.586;2024-02-28T01:57:31;12.68;;;8.45;;
38182;SDS011;23991;52.430;10.586;2024-02-28T01:59:57;14.50;;;8.60;;
38182;SDS011;23991;52.430;10.586;2024-02-28T02:02:23;13.38;;;8.73;;
38182;SDS011;23991;52.430;10.586;2024-02-28T02:04:48;12.52;;;8.18;;
38182;SDS011;23991;52.430;10.586;2024-02-28T02:07:17;12.68;;;8.90;;
38182;SDS011;23991;52.430;10.586;2024-02-28T02:09:43;12.38;;;8.02;;
38182;SDS011;23991;52.430;10.586;2024-02-28T02:12:09;13.32;;;8.63;;
38182;SDS011;23991;52.430;10.586;2024-02-28T02:14:34;12.82;;;8.40;;
38182;SDS011;23991;52.430;10.586;2024-02-28T02:17:00;11.88;;;7.85;;
38182;SDS011;23991;52.430;10.586;2024-02-28T02:19:25;12.15;;;8.57;;
38182;SDS011;23991;52.430;10.586;2024-02-28T02:21:52;10.98;;;7.55;;
38182;SDS011;23991;52.430;10.586;2024-02-28T02:24:21;13.68;;;8.45;;
38182;SDS011;23991;52.430;10.586;2024-02-28T02:26:46;13.23;;;8.48;;
38182;SDS011;23991;52.430;10.586;2024-02-28T02:29:12;13.05;;;8.23;;
38182;SDS011;23991;52.430;10.586;2024-02-28T02:31:38;10.25;;;7.28;;
38182;SDS011;23991;52.430;10.586;2024-02-28T02:34:05;12.60;;;7.78;;
38182;SDS011;23991;52.430;10.586;2024-02-28T02:36:31;12.68;;;8.23;;
38182;SDS011;23991;52.430;10.586;2024-02-28T02:38:56;14.05;;;7.82;;
38182;SDS011;23991;52.430;10.586;2024-02-28T02:41:22;10.98;;;7.80;;
38182;SDS011;23991;52.430;10.586;2024-02-28T02:43:48;12.15;;;7.97;;
38182;SDS011;23991;52.430;10.586;2024-02-28T02:46:13;13.10;;;8.45;;
38182;SDS011;23991;52.430;10.586;2024-02-28T02:48:39;14.00;;;9.10;;
38182;SDS011;23991;52.430;10.586;2024-02-28T02:51:05;13.10;;;8.63;;
38182;SDS011;23991;52.430;10.586;2024-02-28T02:53:30;13.13;;;8.40;;
38182;SDS011;23991;52.430;10.586;2024-02-28T02:55:56;13.30;;;8.52;;
38182;SDS011;23991;52.430;10.586;2024-02-28T02:58:21;12.60;;;8.48;;
38182;SDS011;23991;52.430;10.586;2024-02-28T03:00:47;12.57;;;8.40;;
38182;SDS011;23991;52.430;10.586;2024-02-28T03:03:12;13.15;;;8.23;;
38182;SDS011;23991;52.430;10.586;2024-02-28T03:05:38;12.65;;;8.52;;
38182;SDS011;23991;52.430;10.586;2024-02-28T03:08:03;12.63;;;8.80;;
38182;SDS011;23991;52.430;10.586;2024-02-28T03:10:29;13.20;;;8.68;;
38182;SDS011;23991;52.430;10.586;2024-02-28T03:12:54;13.35;;;8.75;;
38182;SDS011;23991;52.430;10.586;2024-02-28T03:15:20;12.40;;;8.30;;
38182;SDS011;23991;52.430;10.586;2024-02-28T03:17:45;13.10;;;8.68;;
38182;SDS011;23991;52.430;10.586;2024-02-28T03:20:11;12.85;;;9.13;;
38182;SDS011;23991;52.430;10.586;2024-02-28T03:22:39;12.07;;;8.88;;
38182;SDS011;23991;52.430;10.586;2024-02-28T03:25:05;12.15;;;8.55;;
38182;SDS011;23991;52.430;10.586;2024-02-28T03:27:31;13.25;;;8.85;;
38182;SDS011;23991;52.430;10.586;2024-02-28T03:29:56;12.35;;;8.43;;
38182;SDS011;23991;52.430;10.586;2024-02-28T03:32:22;15.10;;;9.05;;
38182;SDS011;23991;52.430;10.586;2024-02-28T03:34:47;11.52;;;8.38;;
38182;SDS011;23991;52.430;10.586;2024-02-28T03:37:13;12.80;;;8.82;;
38182;SDS011;23991;52.430;10.586;2024-02-28T03:39:39;12.32;;;8.93;;
38182;SDS011;23991;52.430;10.586;2024-02-28T03:42:04;12.93;;;9.43;;
38182;SDS011;23991;52.430;10.586;2024-02-28T03:44:30;13.00;;;9.15;;
38182;SDS011;23991;52.430;10.586;2024-02-28T03:46:56;13.85;;;9.32;;
38182;SDS011;23991;52.430;10.586;2024-02-28T03:49:21;12.68;;;9.00;;
38182;SDS011;23991;52.430;10.586;2024-02-28T03:51:47;15.52;;;9.38;;
38182;SDS011;23991;52.430;10.586;2024-02-28T03:54:12;13.82;;;10.10;;
38182;SDS011;23991;52.430;10.586;2024-02-28T03:56:38;14.15;;;10.15;;
38182;SDS011;23991;52.430;10.586;2024-02-28T03:59:03;13.00;;;9.32;;
38182;SDS011;23991;52.430;10.586;2024-02-28T04:01:29;14.05;;;9.60;;
38182;SDS011;23991;52.430;10.586;2024-02-28T04:03:55;12.95;;;8.73;;
38182;SDS011;23991;52.430;10.586;2024-02-28T04:06:20;15.48;;;9.73;;
38182;SDS011;23991;52.430;10.586;2024-02-28T04:08:46;14.30;;;10.02;;
38182;SDS011;23991;52.430;10.586;2024-02-28T04:11:11;16.20;;;10.32;;
38182;SDS011;23991;52.430;10.586;2024-02-28T04:13:37;16.60;;;10.63;;
38182;SDS011;23991;52.430;10.586;2024-02-28T04:16:03;13.80;;;10.45;;
38182;SDS011;23991;52.430;10.586;2024-02-28T04:18:29;14.18;;;9.85;;
38182;SDS011;23991;52.430;10.586;2024-02-28T04:20:55;17.45;;;11.20;;
38182;SDS011;23991;52.430;10.586;2024-02-28T04:23:21;18.58;;;12.00;;
38182;SDS011;23991;52.430;10.586;2024-02-28T04:25:46;18.10;;;11.65;;
38182;SDS011;23991;52.430;10.586;2024-02-28T04:28:12;18.33;;;11.65;;
38182;SDS011;23991;52.430;10.586;2024-02-28T04:30:37;17.25;;;11.55;;
38182;SDS011;23991;52.430;10.586;2024-02-28T04:33:03;19.40;;;11.88;;
38182;SDS011;23991;52.430;10.586;2024-02-28T04:35:29;16.92;;;10.77;;
38182;SDS011;23991;52.430;10.586;2024-02-28T04:37:55;17.48;;;11.13;;
38182;SDS011;23991;52.430;10.586;2024-02-28T04:40:20;17.92;;;11.82;;
38182;SDS011;23991;52.430;10.586;2024-02-28T04:42:46;17.70;;;11.02;;
38182;SDS011;23991;52.430;10.586;2024-02-28T04:45:11;19.02;;;12.10;;
38182;SDS011;23991;52.430;10.586;2024-02-28T04:47:37;17.95;;;10.68;;
38182;SDS011;23991;52.430;10.586;2024-02-28T04:50:03;14.63;;;10.05;;
38182;SDS011;23991;52.430;10.586;2024-02-28T04:52:30;17.30;;;10.32;;
38182;SDS011;23991;52.430;10.586;2024-02-28T04:54:55;17.48;;;10.15;;
38182;SDS011;23991;52.430;10.586;2024-02-28T04:57:21;15.43;;;9.63;;
38182;SDS011;23991;52.430;10.586;2024-02-28T04:59:47;16.83;;;10.77;;
38182;SDS011;23991;52.430;10.586;2024-02-28T05:02:12;17.05;;;11.23;;
38182;SDS011;23991;52.430;10.586;2024-02-28T05:04:38;19.13;;;12.45;;
38182;SDS011;23991;52.430;10.586;2024-02-28T05:07:03;21.35;;;13.20;;
38182;SDS011;23991;52.430;10.586;2024-02-28T05:09:29;20.83;;;13.25;;
38182;SDS011;23991;52.430;10.586;2024-02-28T05:11:55;20.73;;;13.30;;
38182;SDS011;23991;52.430;10.586;2024-02-28T05:14:20;19.80;;;13.07;;
38182;SDS011;23991;52.430;10.586;2024-02-28T05:16:48;18.27;;;11.93;;
38182;SDS011;23991;52.430;10.586;2024-02-28T05:19:14;19.90;;;12.93;;
38182;SDS011;23991;52.430;10.586;2024-02-28T05:21:42;20.88;;;13.52;;
38182;SDS011;23991;52.430;10.586;2024-02-28T05:24:08;23.90;;;13.15;;
38182;SDS011;23991;52.430;10.586;2024-02-28T05:26:34;21.80;;;13.23;;
38182;SDS011;23991;52.430;10.586;2024-02-28T05:29:00;21.65;;;13.35;;
38182;SDS011;23991;52.430;10.586;2024-02-28T05:31:26;21.38;;;14.07;;
38182;SDS011;23991;52.430;10.586;2024-02-28T05:33:53;21.02;;;13.55;;
38182;SDS011;23991;52.430;10.586;2024-02-28T05:36:21;21.20;;;13.38;;
38182;SDS011;23991;52.430;10.586;2024-02-28T05:38:48;20.35;;;13.82;;
38182;SDS011;23991;52.430;10.586;2024-02-28T05:41:15;20.27;;;12.70;;
38182;SDS011;23991;52.430;10.586;2024-02-28T05:43:43;21.25;;;12.90;;
38182;SDS011;23991;52.430;10.586;2024-02-28T05:46:09;19.23;;;12.95;;
38182;SDS011;23991;52.430;10.586;2024-02-28T05:48:35;21.85;;;13.90;;
38182;SDS011;23991;52.430;10.586;2024-02-28T05:51:00;24.08;;;14.77;;
38182;SDS011;23991;52.430;10.586;2024-02-28T05:53:26;23.08;;;15.43;;
38182;SDS011;23991;52.430;10.586;2024-02-28T05:55:52;25.00;;;15.65;;
38182;SDS011;23991;52.430;10.586;2024-02-28T05:58:19;24.58;;;15.00;;
38182;SDS011;23991;52.430;10.586;2024-02-28T06:00:44;26.08;;;16.42;;
38182;SDS011;23991;52.430;10.586;2024-02-28T06:03:10;23.73;;;15.57;;
38182;SDS011;23991;52.430;10.586;2024-02-28T06:05:35;28.35;;;17.27;;
38182;SDS011;23991;52.430;10.586;2024-02-28T06:08:01;27.17;;;16.60;;
38182;SDS011;23991;52.430;10.586;2024-02-28T06:10:29;27.83;;;17.23;;
38182;SDS011;23991;52.430;10.586;2024-02-28T06:12:55;28.10;;;16.75;;
38182;SDS011;23991;52.430;10.586;2024-02-28T06:15:20;29.02;;;18.50;;
38182;SDS011;23991;52.430;10.586;2024-02-28T06:17:46;26.30;;;16.70;;
38182;SDS011;23991;52.430;10.586;2024-02-28T06:20:11;27.27;;;16.40;;
38182;SDS011;23991;52.430;10.586;2024-02-28T06:22:37;28.13;;;16.85;;
38182;SDS011;23991;52.430;10.586;2024-02-28T06:25:02;29.20;;;18.50;;
38182;SDS011;23991;52.430;10.586;2024-02-28T06:29:58;30.00;;;17.88;;
38182;SDS011;23991;52.430;10.586;2024-02-28T06:32:24;26.45;;;16.70;;
38182;SDS011;23991;52.430;10.586;2024-02-28T06:34:50;29.17;;;17.83;;
38182;SDS011;23991;52.430;10.586;2024-02-28T06:37:15;28.00;;;16.45;;
38182;SDS011;23991;52.430;10.586;2024-02-28T06:39:41;28.30;;;18.08;;
38182;SDS011;23991;52.430;10.586;2024-02-28T06:42:06;30.38;;;18.70;;
38182;SDS011;23991;52.430;10.586;2024-02-28T06:44:32;32.28;;;19.40;;
38182;SDS011;23991;52.430;10.586;2024-02-28T06:46:58;31.80;;;18.02;;
38182;SDS011;23991;52.430;10.586;2024-02-28T06:49:23;27.60;;;17.33;;
38182;SDS011;23991;52.430;10.586;2024-02-28T06:51:49;29.48;;;18.15;;
38182;SDS011;23991;52.430;10.586;2024-02-28T06:54:14;27.77;;;17.77;;
38182;SDS011;23991;52.430;10.586;2024-02-28T06:56:40;28.48;;;18.48;;
38182;SDS011;23991;52.430;10.586;2024-02-28T06:59:05;27.73;;;17.73;;
38182;SDS011;23991;52.430;10.586;2024-02-28T07:01:32;30.10;;;19.67;;
38182;SDS011;23991;52.430;10.586;2024-02-28T07:03:57;28.73;;;17.85;;
38182;SDS011;23991;52.430;10.586;2024-02-28T07:06:23;28.33;;;17.15;;
38182;SDS011;23991;52.430;10.586;2024-02-28T07:08:48;26.67;;;17.92;;
38182;SDS011;23991;52.430;10.586;2024-02-28T07:11:14;26.85;;;17.63;;
38182;SDS011;23991;52.430;10.586;2024-02-28T07:13:40;31.17;;;18.15;;
38182;SDS011;23991;52.430;10.586;2024-02-28T07:16:07;25.75;;;16.63;;
38182;SDS011;23991;52.430;10.586;2024-02-28T07:18:33;28.25;;;17.48;;
38182;SDS011;23991;52.430;10.586;2024-02-28T07:20:59;26.75;;;17.48;;
38182;SDS011;23991;52.430;10.586;2024-02-28T07:23:25;25.45;;;16.35;;
38182;SDS011;23991;52.430;10.586;2024-02-28T07:25:51;29.67;;;18.48;;
38182;SDS011;23991;52.430;10.586;2024-02-28T07:28:16;27.83;;;19.00;;
38182;SDS011;23991;52.430;10.586;2024-02-28T07:30:42;28.77;;;17.23;;
38182;SDS011;23991;52.430;10.586;2024-02-28T07:33:09;27.90;;;17.25;;
38182;SDS011;23991;52.430;10.586;2024-02-28T07:35:48;24.85;;;15.93;;
38182;SDS011;23991;52.430;10.586;2024-02-28T07:38:15;25.90;;;16.20;;
38182;SDS011;23991;52.430;10.586;2024-02-28T07:40:42;26.63;;;17.33;;
38182;SDS011;23991;52.430;10.586;2024-02-28T07:43:08;30.52;;;18.13;;
38182;SDS011;23991;52.430;10.586;2024-02-28T07:45:33;27.38;;;17.02;;
38182;SDS011;23991;52.430;10.586;2024-02-28T07:47:59;27.70;;;17.38;;
38182;SDS011;23991;52.430;10.586;2024-02-28T07:50:25;25.95;;;16.83;;
38182;SDS011;23991;52.430;10.586;2024-02-28T07:52:52;25.38;;;16.52;;
38182;SDS011;23991;52.430;10.586;2024-02-28T07:55:19;25.55;;;17.23;;
38182;SDS011;23991;52.430;10.586;2024-02-28T07:57:47;24.88;;;16.35;;
38182;SDS011;23991;52.430;10.586;2024-02-28T08:00:15;25.02;;;16.30;;
38182;SDS011;23991;52.430;10.586;2024-02-28T08:02:44;25.80;;;16.95;;
38182;SDS011;23991;52.430;10.586;2024-02-28T08:05:09;25.95;;;15.52;;
38182;SDS011;23991;52.430;10.586;2024-02-28T08:07:35;25.67;;;15.77;;
38182;SDS011;23991;52.430;10.586;2024-02-28T08:10:01;26.83;;;16.27;;
38182;SDS011;23991;52.430;10.586;2024-02-28T08:12:27;25.30;;;15.73;;
38182;SDS011;23991;52.430;10.586;2024-02-28T08:14:52;22.75;;;14.77;;
38182;SDS011;23991;52.430;10.586;2024-02-28T08:17:18;22.67;;;14.77;;
38182;SDS011;23991;52.430;10.586;2024-02-28T08:19:43;23.75;;;15.30;;
38182;SDS011;23991;52.430;10.586;2024-02-28T08:22:09;21.83;;;13.90;;
38182;SDS011;23991;52.430;10.586;2024-02-28T08:24:35;26.05;;;15.80;;
38182;SDS011;23991;52.430;10.586;2024-02-28T08:27:02;23.67;;;15.20;;
38182;SDS011;23991;52.430;10.586;2024-02-28T08:29:27;25.00;;;15.57;;
38182;SDS011;23991;52.430;10.586;2024-02-28T08:31:53;23.90;;;14.65;;
38182;SDS011;23991;52.430;10.586;2024-02-28T08:34:18;24.30;;;14.27;;
38182;SDS011;23991;52.430;10.586;2024-02-28T08:36:44;22.75;;;14.30;;
38182;SDS011;23991;52.430;10.586;2024-02-28T08:39:09;20.70;;;14.00;;
38182;SDS011;23991;52.430;10.586;2024-02-28T08:41:36;24.00;;;15.48;;
38182;SDS011;23991;52.430;10.586;2024-02-28T08:44:01;23.17;;;15.20;;
38182;SDS011;23991;52.430;10.586;2024-02-28T08:46:27;23.13;;;14.57;;
38182;SDS011;23991;52.430;10.586;2024-02-28T08:48:53;23.42;;;14.93;;
38182;SDS011;23991;52.430;10.586;2024-02-28T08:51:18;21.90;;;14.52;;
38182;SDS011;23991;52.430;10.586;2024-02-28T08:53:44;23.58;;;15.20;;
38182;SDS011;23991;52.430;10.586;2024-02-28T08:56:09;23.42;;;15.05;;
38182;SDS011;23991;52.430;10.586;2024-02-28T08:58:35;25.98;;;15.25;;
38182;SDS011;23991;52.430;10.586;2024-02-28T09:01:02;24.10;;;15.63;;
38182;SDS011;23991;52.430;10.586;2024-02-28T09:03:29;24.25;;;15.10;;
38182;SDS011;23991;52.430;10.586;2024-02-28T09:05:54;27.40;;;16.25;;
38182;SDS011;23991;52.430;10.586;2024-02-28T09:08:20;25.00;;;15.93;;
38182;SDS011;23991;52.430;10.586;2024-02-28T09:10:45;23.17;;;15.38;;
38182;SDS011;23991;52.430;10.586;2024-02-28T09:13:12;21.95;;;14.80;;
38182;SDS011;23991;52.430;10.586;2024-02-28T09:15:38;22.35;;;15.30;;
38182;SDS011;23991;52.430;10.586;2024-02-28T09:18:03;24.77;;;16.58;;
38182;SDS011;23991;52.430;10.586;2024-02-28T09:20:29;25.08;;;15.82;;
38182;SDS011;23991;52.430;10.586;2024-02-28T09:22:55;23.83;;;15.45;;
38182;SDS011;23991;52.430;10.586;2024-02-28T09:25:20;26.27;;;16.23;;
38182;SDS011;23991;52.430;10.586;2024-02-28T09:27:46;25.35;;;16.38;;
38182;SDS011;23991;52.430;10.586;2024-02-28T09:30:12;25.00;;;16.40;;
38182;SDS011;23991;52.430;10.586;2024-02-28T09:32:38;25.25;;;17.25;;
38182;SDS011;23991;52.430;10.586;2024-02-28T09:35:04;25.85;;;16.88;;
38182;SDS011;23991;52.430;10.586;2024-02-28T09:37:30;25.20;;;17.27;;
38182;SDS011;23991;52.430;10.586;2024-02-28T09:39:56;26.63;;;17.65;;
38182;SDS011;23991;52.430;10.586;2024-02-28T09:42:22;25.52;;;16.88;;
38182;SDS011;23991;52.430;10.586;2024-02-28T09:44:48;24.48;;;16.02;;
38182;SDS011;23991;52.430;10.586;2024-02-28T09:47:13;25.13;;;15.80;;
38182;SDS011;23991;52.430;10.586;2024-02-28T09:49:39;27.13;;;18.25;;
38182;SDS011;23991;52.430;10.586;2024-02-28T09:52:07;27.30;;;16.77;;
38182;SDS011;23991;52.430;10.586;2024-02-28T09:54:33;24.65;;;16.85;;
38182;SDS011;23991;52.430;10.586;2024-02-28T09:56:58;24.60;;;16.70;;
38182;SDS011;23991;52.430;10.586;2024-02-28T09:59:24;27.70;;;17.40;;
38182;SDS011;23991;52.430;10.586;2024-02-28T10:01:56;27.52;;;17.20;;
38182;SDS011;23991;52.430;10.586;2024-02-28T10:04:25;25.13;;;16.05;;
38182;SDS011;23991;52.430;10.586;2024-02-28T10:06:51;25.30;;;16.70;;
38182;SDS011;23991;52.430;10.586;2024-02-28T10:09:17;27.35;;;17.17;;
38182;SDS011;23991;52.430;10.586;2024-02-28T10:11:42;23.98;;;16.77;;
38182;SDS011;23991;52.430;10.586;2024-02-28T10:14:17;27.20;;;17.08;;
38182;SDS011;23991;52.430;10.586;2024-02-28T10:16:44;23.90;;;16.45;;
38182;SDS011;23991;52.430;10.586;2024-02-28T10:19:09;28.55;;;16.67;;
38182;SDS011;23991;52.430;10.586;2024-02-28T10:21:35;29.35;;;18.42;;
38182;SDS011;23991;52.430;10.586;2024-02-28T10:24:00;25.33;;;17.75;;
38182;SDS011;23991;52.430;10.586;2024-02-28T10:26:26;28.92;;;18.33;;
38182;SDS011;23991;52.430;10.586;2024-02-28T10:28:51;27.30;;;17.00;;
38182;SDS011;23991;52.430;10.586;2024-02-28T10:31:17;25.23;;;16.63;;
38182;SDS011;23991;52.430;10.586;2024-02-28T10:33:43;28.02;;;17.38;;
38182;SDS011;23991;52.430;10.586;2024-02-28T10:36:08;24.63;;;16.92;;
38182;SDS011;23991;52.430;10.586;2024-02-28T10:38:34;25.20;;;16.08;;
38182;SDS011;23991;52.430;10.586;2024-02-28T10:41:01;27.83;;;17.42;;
38182;SDS011;23991;52.430;10.586;2024-02-28T10:43:27;25.63;;;17.27;;
38182;SDS011;23991;52.430;10.586;2024-02-28T10:45:55;29.38;;;17.35;;
38182;SDS011;23991;52.430;10.586;2024-02-28T10:48:22;27.63;;;18.30;;
38182;SDS011;23991;52.430;10.586;2024-02-28T10:50:49;27.45;;;18.27;;
38182;SDS011;23991;52.430;10.586;2024-02-28T10:53:16;24.58;;;16.55;;
38182;SDS011;23991;52.430;10.586;2024-02-28T10:55:46;28.05;;;18.25;;
38182;SDS011;23991;52.430;10.586;2024-02-28T10:58:13;27.50;;;17.80;;
38182;SDS011;23991;52.430;10.586;2024-02-28T11:00:40;27.40;;;18.38;;
38182;SDS011;23991;52.430;10.586;2024-02-28T11:03:09;25.77;;;17.75;;
38182;SDS011;23991;52.430;10.586;2024-02-28T11:05:39;27.38;;;18.25;;
38182;SDS011;23991;52.430;10.586;2024-02-28T11:10:54;26.88;;;18.13;;
38182;SDS011;23991;52.430;10.586;2024-02-28T11:13:24;27.88;;;18.67;;
38182;SDS011;23991;52.430;10.586;2024-02-28T11:15:51;27.70;;;17.95;;
38182;SDS011;23991;52.430;10.586;2024-02-28T11:18:17;26.15;;;18.83;;
38182;SDS011;23991;52.430;10.586;2024-02-28T11:20:43;25.05;;;18.05;;
38182;SDS011;23991;52.430;10.586;2024-02-28T11:23:11;24.92;;;18.13;;
38182;SDS011;23991;52.430;10.586;2024-02-28T11:25:37;30.35;;;20.70;;
38182;SDS011;23991;52.430;10.586;2024-02-28T11:28:03;28.40;;;20.58;;
38182;SDS011;23991;52.430;10.586;2024-02-28T11:30:29;27.40;;;20.35;;
38182;SDS011;23991;52.430;10.586;2024-02-28T11:32:54;28.25;;;20.50;;
38182;SDS011;23991;52.430;10.586;2024-02-28T11:35:20;31.20;;;21.10;;
38182;SDS011;23991;52.430;10.586;2024-02-28T11:37:47;31.10;;;22.50;;
38182;SDS011;23991;52.430;10.586;2024-02-28T11:40:14;30.05;;;20.73;;
38182;SDS011;23991;52.430;10.586;2024-02-28T11:42:39;29.85;;;21.48;;
38182;SDS011;23991;52.430;10.586;2024-02-28T11:45:05;29.92;;;21.50;;
38182;SDS011;23991;52.430;10.586;2024-02-28T11:47:34;31.63;;;21.30;;
38182;SDS011;23991;52.430;10.586;2024-02-28T11:50:03;31.70;;;22.08;;
38182;SDS011;23991;52.430;10.586;2024-02-28T11:52:32;30.77;;;21.35;;
38182;SDS011;23991;52.430;10.586;2024-02-28T11:54:58;32.03;;;21.23;;
38182;SDS011;23991;52.430;10.586;2024-02-28T11:57:24;30.85;;;21.38;;
38182;SDS011;23991;52.430;10.586;2024-02-28T11:59:51;33.38;;;22.52;;
38182;SDS011;23991;52.430;10.586;2024-02-28T12:02:17;32.28;;;22.10;;
38182;SDS011;23991;52.430;10.586;2024-02-28T12:04:43;33.17;;;22.05;;
38182;SDS011;23991;52.430;10.586;2024-02-28T12:07:09;32.05;;;21.80;;
38182;SDS011;23991;52.430;10.586;2024-02-28T12:09:35;31.70;;;21.80;;
38182;SDS011;23991;52.430;10.586;2024-02-28T12:12:01;30.17;;;21.48;;
38182;SDS011;23991;52.430;10.586;2024-02-28T12:14:29;32.63;;;21.10;;
38182;SDS011;23991;52.430;10.586;2024-02-28T12:16:57;29.80;;;20.15;;
38182;SDS011;23991;52.430;10.586;2024-02-28T12:19:23;33.33;;;22.55;;
38182;SDS011;23991;52.430;10.586;2024-02-28T12:21:49;35.00;;;23.40;;
38182;SDS011;23991;52.430;10.586;2024-02-28T12:24:15;29.83;;;21.08;;
38182;SDS011;23991;52.430;10.586;2024-02-28T12:26:41;31.38;;;21.67;;
38182;SDS011;23991;52.430;10.586;2024-02-28T12:29:06;29.60;;;21.23;;
38182;SDS011;23991;52.430;10.586;2024-02-28T12:31:34;30.95;;;21.95;;
38182;SDS011;23991;52.430;10.586;2024-02-28T12:33:59;30.63;;;21.30;;
38182;SDS011;23991;52.430;10.586;2024-02-28T12:36:25;30.40;;;21.55;;
38182;SDS011;23991;52.430;10.586;2024-02-28T12:38:51;29.13;;;21.42;;
38182;SDS011;23991;52.430;10.586;2024-02-28T12:41:17;28.83;;;21.90;;
38182;SDS011;23991;52.430;10.586;2024-02-28T12:43:42;31.77;;;20.58;;
38182;SDS011;23991;52.430;10.586;2024-02-28T12:46:08;29.95;;;21.90;;
38182;SDS011;23991;52.430;10.586;2024-02-28T12:48:37;29.95;;;21.92;;
38182;SDS011;23991;52.430;10.586;2024-02-28T12:51:03;29.92;;;21.67;;
38182;SDS011;23991;52.430;10.586;2024-02-28T12:55:59;32.45;;;23.38;;
38182;SDS011;23991;52.430;10.586;2024-02-28T12:58:24;29.35;;;21.38;;
38182;SDS011;23991;52.430;10.586;2024-02-28T13:00:50;29.73;;;21.63;;
38182;SDS011;23991;52.430;10.586;2024-02-28T13:03:15;28.08;;;20.63;;
38182;SDS011;23991;52.430;10.586;2024-02-28T13:05:42;30.73;;;21.73;;
38182;SDS011;23991;52.430;10.586;2024-02-28T13:08:08;29.95;;;22.25;;
38182;SDS011;23991;52.430;10.586;2024-02-28T13:10:34;32.20;;;21.88;;
38182;SDS011;23991;52.430;10.586;2024-02-28T13:13:01;27.83;;;21.35;;
38182;SDS011;23991;52.430;10.586;2024-02-28T13:15:27;30.88;;;21.33;;
38182;SDS011;23991;52.430;10.586;2024-02-28T13:17:52;30.25;;;21.65;;
38182;SDS011;23991;52.430;10.586;2024-02-28T13:20:18;27.88;;;20.65;;
38182;SDS011;23991;52.430;10.586;2024-02-28T13:22:44;30.50;;;21.45;;
38182;SDS011;23991;52.430;10.586;2024-02-28T13:25:09;29.73;;;20.83;;
38182;SDS011;23991;52.430;10.586;2024-02-28T13:27:36;32.88;;;21.85;;
38182;SDS011;23991;52.430;10.586;2024-02-28T13:30:02;30.55;;;21.73;;
38182;SDS011;23991;52.430;10.586;2024-02-28T13:32:28;30.83;;;22.50;;
38182;SDS011;23991;52.430;10.586;2024-02-28T13:34:54;30.33;;;22.48;;
38182;SDS011;23991;52.430;10.586;2024-02-28T13:37:19;33.63;;;22.35;;
38182;SDS011;23991;52.430;10.586;2024-02-28T13:39:45;32.17;;;22.85;;
38182;SDS011;23991;52.430;10.586;2024-02-28T13:42:11;34.65;;;23.35;;
38182;SDS011;23991;52.430;10.586;2024-02-28T13:44:37;32.28;;;23.15;;
38182;SDS011;23991;52.430;10.586;2024-02-28T13:47:03;34.63;;;23.73;;
38182;SDS011;23991;52.430;10.586;2024-02-28T13:49:29;32.70;;;23.27;;
38182;SDS011;23991;52.430;10.586;2024-02-28T13:51:54;30.08;;;22.08;;
38182;SDS011;23991;52.430;10.586;2024-02-28T13:54:20;32.75;;;22.67;;
38182;SDS011;23991;52.430;10.586;2024-02-28T13:56:45;30.55;;;22.27;;
38182;SDS011;23991;52.430;10.586;2024-02-28T13:59:11;32.72;;;23.17;;
38182;SDS011;23991;52.430;10.586;2024-02-28T14:01:37;32.95;;;24.35;;
38182;SDS011;23991;52.430;10.586;2024-02-28T14:04:03;32.05;;;23.15;;
38182;SDS011;23991;52.430;10.586;2024-02-28T14:06:29;34.47;;;24.70;;
38182;SDS011;23991;52.430;10.586;2024-02-28T14:08:55;30.88;;;23.05;;
38182;SDS011;23991;52.430;10.586;2024-02-28T14:11:21;34.72;;;24.25;;
38182;SDS011;23991;52.430;10.586;2024-02-28T14:13:47;34.00;;;23.88;;